createdAt,value
2018-09-14T00:01:42.444Z,101344.72
2018-09-14T00:04:12.523Z,101342.86
2018-09-14T00:06:42.642Z,101347.27
2018-09-14T00:09:13.802Z,101348.34
2018-09-14T00:11:44.133Z,101346.23
2018-09-14T00:14:14.342Z,101342.80
2018-09-14T00:16:44.244Z,101341.33
2018-09-14T00:19:14.327Z,101346.26
2018-09-14T00:21:45.158Z,101344.71
2018-09-14T00:24:15.375Z,101343.13
2018-09-14T00:26:45.358Z,101344.12
2018-09-14T00:29:15.411Z,101335.41
2018-09-14T00:31:45.381Z,101343.48
2018-09-14T00:34:15.196Z,101339.77
2018-09-14T00:36:45.242Z,101336.25
2018-09-14T00:39:15.226Z,101337.78
2018-09-14T00:41:45.553Z,101339.25
2018-09-14T00:44:15.676Z,101336.57
2018-09-14T00:46:46.193Z,101329.91
2018-09-14T00:49:16.553Z,101327.25
2018-09-14T00:51:46.577Z,101333.61
2018-09-14T00:54:16.399Z,101332.82
2018-09-14T00:56:46.392Z,101329.77
2018-09-14T00:59:16.449Z,101329.92
2018-09-14T01:01:46.599Z,101331.44
2018-09-14T01:04:16.646Z,101328.78
2018-09-14T01:06:46.570Z,101332.81
2018-09-14T01:09:21.565Z,101334.28
2018-09-14T01:11:51.584Z,101331.36
2018-09-14T01:14:21.584Z,101332.25
2018-09-14T01:16:51.487Z,101320.22
2018-09-14T01:19:21.557Z,101322.53
2018-09-14T01:21:51.786Z,101326.44
2018-09-14T01:24:21.798Z,101319.23
2018-09-14T01:26:51.818Z,101323.45
2018-09-14T01:29:21.803Z,101326.34
2018-09-14T01:31:51.946Z,101321.39
2018-09-14T01:34:22.945Z,101323.24
2018-09-14T01:36:52.892Z,101322.33
2018-09-14T01:39:22.970Z,101319.23
2018-09-14T01:41:52.922Z,101314.02
2018-09-14T01:44:22.712Z,101316.98
2018-09-14T01:46:52.747Z,101314.14
2018-09-14T01:49:22.759Z,101314.99
2018-09-14T01:51:52.784Z,101308.47
2018-09-14T01:54:22.630Z,101308.80
2018-09-14T01:56:52.947Z,101311.73
2018-09-14T01:59:22.810Z,101309.70
2018-09-14T02:01:52.887Z,101310.95
2018-09-14T02:04:22.929Z,101311.93
2018-09-14T02:06:53.014Z,101305.20
2018-09-14T02:09:23.117Z,101298.27
2018-09-14T02:11:53.093Z,101308.92
2018-09-14T02:14:23.077Z,101309.55
2018-09-14T02:16:52.944Z,101309.03
2018-09-14T02:19:22.791Z,101310.33
2018-09-14T02:21:52.880Z,101300.67
2018-09-14T02:24:22.936Z,101300.74
2018-09-14T02:26:52.984Z,101300.58
2018-09-14T02:29:22.938Z,101298.52
2018-09-14T02:31:52.988Z,101296.38
2018-09-14T02:34:22.940Z,101298.31
2018-09-14T02:36:53.004Z,101297.63
2018-09-14T02:39:23.032Z,101288.18
2018-09-14T02:41:54.093Z,101290.00
2018-09-14T02:44:23.948Z,101286.48
2018-09-14T02:46:57.073Z,101281.34
2018-09-14T02:49:27.193Z,101287.11
2018-09-14T02:51:57.103Z,101282.97
2018-09-14T02:54:27.099Z,101281.56
2018-09-14T02:56:57.205Z,101290.22
2018-09-14T02:59:27.321Z,101281.86
2018-09-14T03:01:57.328Z,101285.82
2018-09-14T03:04:27.080Z,101290.22
2018-09-14T03:06:57.090Z,101281.75
2018-09-14T03:09:27.195Z,101280.36
2018-09-14T03:11:57.534Z,101277.64
2018-09-14T03:14:27.805Z,101281.27
2018-09-14T03:16:57.923Z,101278.32
2018-09-14T03:19:27.937Z,101278.00
2018-09-14T03:21:57.969Z,101276.86
2018-09-14T03:24:27.944Z,101279.47
2018-09-14T03:26:57.900Z,101285.97
2018-09-14T03:29:27.738Z,101279.14
2018-09-14T03:31:57.757Z,101279.88
2018-09-14T03:34:27.713Z,101282.34
2018-09-14T03:36:57.792Z,101286.15
2018-09-14T03:39:27.744Z,101276.72
2018-09-14T03:41:57.789Z,101277.63
2018-09-14T03:44:27.756Z,101281.22
2018-09-14T03:46:57.683Z,101281.98
2018-09-14T03:49:27.724Z,101278.96
2018-09-14T03:51:57.801Z,101276.78
2018-09-14T03:54:27.836Z,101285.17
2018-09-14T03:56:57.964Z,101280.50
2018-09-14T03:59:28.034Z,101275.37
2018-09-14T04:01:58.034Z,101279.17
2018-09-14T04:04:28.127Z,101270.88
2018-09-14T04:06:58.143Z,101276.65
2018-09-14T04:09:28.136Z,101278.55
2018-09-14T04:11:58.796Z,101272.78
2018-09-14T04:14:28.776Z,101278.19
2018-09-14T04:16:58.840Z,101276.34
2018-09-14T04:19:28.839Z,101279.71
2018-09-14T04:21:58.926Z,101270.63
2018-09-14T04:24:28.919Z,101280.69
2018-09-14T04:26:59.027Z,101282.83
2018-09-14T04:29:28.943Z,101287.80
2018-09-14T04:31:58.909Z,101282.59
2018-09-14T04:34:29.121Z,101286.67
2018-09-14T04:36:59.024Z,101278.48
2018-09-14T04:39:29.093Z,101268.55
2018-09-14T04:41:59.068Z,101277.32
2018-09-14T04:44:29.020Z,101281.23
2018-09-14T04:46:59.052Z,101287.38
2018-09-14T04:49:28.960Z,101277.50
2018-09-14T04:51:58.990Z,101270.61
2018-09-14T04:54:29.082Z,101277.66
2018-09-14T04:56:58.994Z,101277.68
2018-09-14T04:59:31.016Z,101273.02
2018-09-14T05:02:06.584Z,101278.73
2018-09-14T05:04:36.644Z,101280.02
2018-09-14T05:07:06.609Z,101280.00
2018-09-14T05:09:36.613Z,101278.14
2018-09-14T05:12:06.855Z,101282.94
2018-09-14T05:14:36.783Z,101280.42
2018-09-14T05:17:06.807Z,101280.52
2018-09-14T05:19:36.928Z,101273.86
2018-09-14T05:22:06.814Z,101273.28
2018-09-14T05:24:36.923Z,101279.06
2018-09-14T05:27:06.826Z,101281.59
2018-09-14T05:29:36.888Z,101279.62
2018-09-14T05:32:07.090Z,101285.55
2018-09-14T05:34:37.047Z,101292.25
2018-09-14T05:37:07.240Z,101294.27
2018-09-14T05:39:37.049Z,101290.19
2018-09-14T05:42:07.004Z,101287.72
2018-09-14T05:44:37.040Z,101295.61
2018-09-14T05:47:07.643Z,101295.00
2018-09-14T05:49:37.667Z,101302.61
2018-09-14T05:52:07.888Z,101302.11
2018-09-14T05:54:39.807Z,101298.99
2018-09-14T05:57:09.817Z,101302.72
2018-09-14T05:59:40.025Z,101303.34
2018-09-14T06:02:10.057Z,101304.64
2018-09-14T06:04:42.652Z,101300.66
2018-09-14T06:07:13.312Z,101305.70
2018-09-14T06:09:44.166Z,101313.05
2018-09-14T06:12:14.258Z,101305.50
2018-09-14T06:14:44.725Z,101306.57
2018-09-14T06:17:15.327Z,101304.95
2018-09-14T06:19:45.392Z,101308.86
2018-09-14T06:22:15.518Z,101308.61
2018-09-14T06:24:45.550Z,101309.81
2018-09-14T06:27:15.776Z,101306.25
2018-09-14T06:29:45.836Z,101308.80
2018-09-14T06:32:15.834Z,101314.38
2018-09-14T06:34:49.025Z,101309.77
2018-09-14T06:37:19.109Z,101305.75
2018-09-14T06:39:51.935Z,101308.80
2018-09-14T06:42:21.986Z,101307.56
2018-09-14T06:44:52.375Z,101306.92
2018-09-14T06:47:22.478Z,101307.95
2018-09-14T06:49:52.615Z,101311.86
2018-09-14T06:52:22.588Z,101313.16
2018-09-14T06:54:52.555Z,101307.84
2018-09-14T06:57:23.565Z,101306.87
2018-09-14T06:59:53.694Z,101307.11
2018-09-14T07:02:23.683Z,101310.16
2018-09-14T07:04:53.823Z,101302.58
2018-09-14T07:07:23.991Z,101306.96
2018-09-14T07:09:54.105Z,101303.09
2018-09-14T07:12:24.260Z,101312.01
2018-09-14T07:14:54.444Z,101301.05
2018-09-14T07:17:26.132Z,101303.48
2018-09-14T07:19:56.202Z,101304.81
2018-09-14T07:22:26.202Z,101305.98
2018-09-14T07:24:56.300Z,101299.84
2018-09-14T07:27:26.241Z,101304.52
2018-09-14T07:29:56.419Z,101306.91
2018-09-14T07:32:26.479Z,101306.55
2018-09-14T07:34:56.384Z,101305.80
2018-09-14T07:37:26.471Z,101313.92
2018-09-14T07:39:56.462Z,101313.70
2018-09-14T07:42:26.509Z,101324.13
2018-09-14T07:44:56.492Z,101317.31
2018-09-14T07:47:26.542Z,101318.22
2018-09-14T07:49:56.635Z,101322.38
2018-09-14T07:52:26.650Z,101320.15
2018-09-14T07:54:56.600Z,101319.09
2018-09-14T07:57:26.660Z,101320.16
2018-09-14T07:59:57.307Z,101320.99
2018-09-14T08:02:28.259Z,101319.69
2018-09-14T08:04:58.293Z,101317.86
2018-09-14T08:07:28.382Z,101317.50
2018-09-14T08:09:59.287Z,101317.57
2018-09-14T08:12:29.439Z,101323.68
2018-09-14T08:14:59.326Z,101326.92
2018-09-14T08:17:29.203Z,101322.13
2018-09-14T08:19:59.258Z,101321.64
2018-09-14T08:22:29.117Z,101322.50
2018-09-14T08:24:59.098Z,101323.95
2018-09-14T08:27:29.024Z,101323.61
2018-09-14T08:29:58.964Z,101318.20
2018-09-14T08:32:29.036Z,101324.42
2018-09-14T08:34:58.772Z,101319.28
2018-09-14T08:37:28.775Z,101318.67
2018-09-14T08:39:58.696Z,101318.48
2018-09-14T08:42:29.233Z,101327.12
2018-09-14T08:44:59.126Z,101325.02
2018-09-14T08:47:29.034Z,101320.14
2018-09-14T08:49:58.947Z,101325.99
2018-09-14T08:52:28.959Z,101331.05
2018-09-14T08:54:58.845Z,101327.00
2018-09-14T08:57:28.780Z,101330.06
2018-09-14T08:59:58.830Z,101322.80
2018-09-14T09:02:28.708Z,101325.01
2018-09-14T09:04:58.647Z,101321.66
2018-09-14T09:07:28.643Z,101328.60
2018-09-14T09:09:58.482Z,101322.42
2018-09-14T09:12:28.420Z,101324.25
2018-09-14T09:14:58.428Z,101321.73
2018-09-14T09:20:04.927Z,101317.29
2018-09-14T09:22:34.923Z,101322.30
2018-09-14T09:25:05.275Z,101319.25
2018-09-14T09:27:35.214Z,101318.93
2018-09-14T09:30:05.205Z,101314.38
2018-09-14T09:32:35.190Z,101324.51
2018-09-14T09:35:05.160Z,101318.63
2018-09-14T09:37:35.747Z,101319.94
2018-09-14T09:40:19.040Z,101311.01
2018-09-14T09:42:48.964Z,101313.30
2018-09-14T09:45:18.959Z,101312.33
2018-09-14T09:47:48.859Z,101311.87
2018-09-14T09:50:18.792Z,101306.92
2018-09-14T09:52:48.685Z,101306.41
2018-09-14T09:55:18.580Z,101306.50
2018-09-14T09:57:48.503Z,101306.38
2018-09-14T10:00:23.446Z,101305.66
2018-09-14T10:02:59.138Z,101301.39
2018-09-14T10:05:34.227Z,101302.59
2018-09-14T10:08:04.198Z,101298.97
2018-09-14T10:10:34.140Z,101303.77
2018-09-14T10:13:04.167Z,101299.47
2018-09-14T10:15:34.227Z,101301.22
2018-09-14T10:18:04.174Z,101294.86
2018-09-14T10:20:34.126Z,101297.86
2018-09-14T10:23:04.044Z,101291.19
2018-09-14T10:25:34.019Z,101295.97
2018-09-14T10:28:04.011Z,101302.56
2018-09-14T10:30:33.944Z,101301.50
2018-09-14T10:33:03.859Z,101300.27
2018-09-14T10:35:33.750Z,101300.44
2018-09-14T10:38:03.648Z,101293.88
2018-09-14T10:40:33.589Z,101292.56
2018-09-14T10:43:03.531Z,101288.63
2018-09-14T10:45:33.417Z,101285.88
2018-09-14T10:48:03.392Z,101285.97
2018-09-14T10:50:33.706Z,101278.88
2018-09-14T10:53:04.220Z,101273.89
2018-09-14T10:55:34.068Z,101275.95
2018-09-14T10:58:03.944Z,101268.06
2018-09-14T11:00:35.300Z,101277.58
2018-09-14T11:03:05.141Z,101278.88
2018-09-14T11:05:35.024Z,101275.41
2018-09-14T11:08:04.832Z,101272.86
2018-09-14T11:10:34.819Z,101270.78
2018-09-14T11:13:04.860Z,101274.84
2018-09-14T11:15:34.731Z,101264.41
2018-09-14T11:18:04.615Z,101260.45
2018-09-14T11:20:34.616Z,101262.34
2018-09-14T11:23:04.277Z,101263.08
2018-09-14T11:25:34.387Z,101250.19
2018-09-14T11:28:04.326Z,101253.87
2018-09-14T11:30:34.299Z,101251.92
2018-09-14T11:33:20.627Z,101243.61
2018-09-14T11:35:52.220Z,101249.88
2018-09-14T11:38:22.386Z,101239.21
2018-09-14T11:41:12.329Z,101242.39
2018-09-14T12:40:25.059Z,101181.45
2018-09-14T12:42:54.892Z,101181.58
2018-09-14T12:45:24.715Z,101180.98
2018-09-14T12:47:54.607Z,101180.77
2018-09-14T12:50:24.503Z,101177.47
2018-09-14T12:52:54.359Z,101174.84
2018-09-14T12:55:24.226Z,101172.13
2018-09-14T12:58:19.414Z,101168.45
2018-09-14T13:00:50.203Z,101170.85
2018-09-14T13:03:20.034Z,101166.91
2018-09-14T13:05:50.264Z,101168.39
2018-09-14T13:08:20.048Z,101161.75
2018-09-14T13:10:49.984Z,101160.82
2018-09-14T13:13:19.857Z,101160.80
2018-09-14T13:15:49.646Z,101163.88
2018-09-14T13:18:19.471Z,101162.64
2018-09-14T13:20:49.395Z,101164.09
2018-09-14T13:23:19.201Z,101169.61
2018-09-14T13:25:49.554Z,101163.29
2018-09-14T13:28:19.419Z,101164.61
2018-09-14T13:30:49.280Z,101155.30
2018-09-14T13:33:19.034Z,101155.18
2018-09-14T13:35:48.669Z,101152.62
2018-09-14T13:38:18.376Z,101154.16
2018-09-14T13:40:48.263Z,101155.32
2018-09-14T13:43:17.866Z,101148.05
2018-09-14T13:45:47.520Z,101156.16
2018-09-14T13:48:17.237Z,101145.47
2018-09-14T13:50:46.876Z,101147.68
2018-09-14T13:53:16.526Z,101146.05
2018-09-14T13:55:46.383Z,101144.25
2018-09-14T13:58:16.139Z,101139.72
2018-09-14T14:00:45.762Z,101150.81
2018-09-14T14:03:15.630Z,101148.73
2018-09-14T14:05:45.320Z,101140.91
2018-09-14T14:08:14.962Z,101143.07
2018-09-14T14:10:44.751Z,101144.06
2018-09-14T14:13:14.496Z,101147.50
2018-09-14T14:15:44.213Z,101144.03
2018-09-14T14:18:13.844Z,101138.87
2018-09-14T14:20:45.500Z,101139.53
2018-09-14T14:23:15.414Z,101135.15
2018-09-14T14:25:45.332Z,101127.04
2018-09-14T14:28:15.268Z,101128.33
2018-09-14T14:30:45.048Z,101122.56
2018-09-14T14:33:14.835Z,101128.48
2018-09-14T14:35:44.810Z,101124.64
2018-09-14T14:38:14.807Z,101125.73
2018-09-14T14:40:44.661Z,101124.64
2018-09-14T14:43:14.461Z,101124.15
2018-09-14T14:45:44.374Z,101111.92
2018-09-14T14:48:14.265Z,101112.68
2018-09-14T14:50:44.225Z,101111.98
2018-09-14T14:53:14.154Z,101109.52
2018-09-14T14:55:44.028Z,101120.50
2018-09-14T14:58:13.940Z,101110.69
2018-09-14T15:00:43.791Z,101113.38
2018-09-14T15:03:13.756Z,101108.25
2018-09-14T15:05:43.807Z,101115.97
2018-09-14T15:08:13.781Z,101117.00
2018-09-14T15:10:43.832Z,101113.68
2018-09-14T15:13:13.764Z,101115.11
2018-09-14T15:19:10.823Z,101108.84
2018-09-14T16:07:20.669Z,101105.39
2018-09-14T16:09:51.025Z,101116.70
2018-09-14T16:12:21.369Z,101111.24
2018-09-14T16:14:51.422Z,101113.31
2018-09-14T16:17:21.647Z,101116.31
2018-09-14T16:19:52.159Z,101109.80
2018-09-14T16:22:22.026Z,101116.33
2018-09-14T16:24:52.603Z,101121.17
2018-09-14T16:27:22.552Z,101117.75
2018-09-14T16:29:52.280Z,101119.96
2018-09-14T16:32:22.415Z,101124.41
2018-09-14T16:34:52.406Z,101129.02
2018-09-14T16:37:22.382Z,101130.05
2018-09-14T16:39:52.472Z,101128.93
2018-09-14T16:42:22.472Z,101121.89
2018-09-14T16:44:53.243Z,101123.78
2018-09-14T16:47:23.397Z,101129.13
2018-09-14T16:49:53.406Z,101119.53
2018-09-14T16:52:23.361Z,101125.23
2018-09-14T16:54:53.115Z,101116.84
2018-09-14T16:57:23.107Z,101118.59
2018-09-14T16:59:53.266Z,101120.12
2018-09-14T17:02:23.436Z,101120.50
2018-09-14T17:04:53.489Z,101122.08
2018-09-14T17:07:23.487Z,101121.30
2018-09-14T17:09:53.349Z,101123.34
2018-09-14T17:12:23.292Z,101119.70
2018-09-14T17:14:53.279Z,101112.80
2018-09-14T17:17:23.358Z,101113.16
2018-09-14T17:19:53.412Z,101116.22
2018-09-14T17:22:23.239Z,101127.39
2018-09-14T17:24:53.655Z,101125.84
2018-09-14T17:27:23.374Z,101125.28
2018-09-14T17:29:53.083Z,101124.20
2018-09-14T17:32:23.099Z,101135.39
2018-09-14T17:34:52.773Z,101130.02
2018-09-14T17:37:22.591Z,101132.23
2018-09-14T17:39:52.389Z,101140.39
2018-09-14T17:42:22.325Z,101148.52
2018-09-14T17:44:52.172Z,101142.64
2018-09-14T17:47:22.103Z,101138.19
2018-09-14T17:49:52.765Z,101135.16
2018-09-14T17:52:23.152Z,101140.69
2018-09-14T17:54:53.812Z,101141.53
2018-09-14T17:57:23.648Z,101139.51
2018-09-14T17:59:53.974Z,101149.48
2018-09-14T18:02:23.844Z,101150.53
2018-09-14T18:04:56.019Z,101148.20
2018-09-14T18:07:25.910Z,101155.81
2018-09-14T18:09:57.007Z,101153.45
2018-09-14T18:12:28.175Z,101156.84
2018-09-14T18:14:58.246Z,101159.86
2018-09-14T18:17:28.551Z,101160.88
2018-09-14T18:19:58.492Z,101156.91
2018-09-14T18:22:29.247Z,101159.10
2018-09-14T18:24:59.475Z,101168.24
2018-09-14T18:27:29.696Z,101168.77
2018-09-14T18:30:02.831Z,101171.69
2018-09-14T18:32:33.560Z,101164.64
2018-09-14T18:35:04.127Z,101175.32
2018-09-14T18:37:34.140Z,101171.09
2018-09-14T18:40:04.157Z,101176.41
2018-09-14T18:42:34.231Z,101176.53
2018-09-14T18:45:04.246Z,101180.23
2018-09-14T18:47:35.326Z,101177.68
2018-09-14T18:50:05.718Z,101182.41
2018-09-14T18:52:36.206Z,101175.48
2018-09-14T18:55:07.018Z,101180.12
2018-09-14T18:57:36.946Z,101182.90
2018-09-14T19:00:06.861Z,101183.52
2018-09-14T19:02:37.305Z,101183.27
2018-09-14T19:05:23.469Z,101180.17
2018-09-14T19:07:54.774Z,101186.03
2018-09-14T19:10:24.999Z,101187.72
2018-09-14T19:12:55.097Z,101189.41
2018-09-14T19:15:25.129Z,101191.20
2018-09-14T19:17:55.189Z,101186.01
2018-09-14T19:20:24.918Z,101191.41
2018-09-14T19:22:55.022Z,101195.42
2018-09-14T19:25:25.027Z,101202.83
2018-09-14T19:27:55.234Z,101196.60
2018-09-14T19:30:25.468Z,101202.09
2018-09-14T19:32:55.837Z,101203.05
2018-09-14T19:35:25.998Z,101209.86
2018-09-14T19:37:57.038Z,101217.63
2018-09-14T19:40:27.238Z,101212.56
2018-09-14T19:42:57.473Z,101214.02
2018-09-14T19:45:27.263Z,101211.27
2018-09-14T19:47:57.284Z,101210.95
2018-09-14T19:50:27.388Z,101206.86
2018-09-14T19:52:57.508Z,101203.36
2018-09-14T19:55:27.641Z,101202.92
2018-09-14T19:57:57.643Z,101207.50
2018-09-14T20:00:27.742Z,101200.51
2018-09-14T20:02:58.794Z,101202.84
2018-09-14T20:05:28.986Z,101191.66
2018-09-14T20:07:59.161Z,101198.73
2018-09-14T20:10:29.072Z,101196.86
2018-09-14T20:12:59.555Z,101195.95
2018-09-14T20:15:29.868Z,101198.48
2018-09-14T20:17:59.852Z,101199.39
2018-09-14T20:20:41.494Z,101208.62
2018-09-14T20:23:11.347Z,101209.63
2018-09-14T20:25:41.641Z,101226.33
2018-09-14T20:28:11.779Z,101227.13
2018-09-14T20:30:42.196Z,101225.53
2018-09-14T20:33:12.329Z,101219.77
2018-09-14T20:35:42.386Z,101218.13
2018-09-14T20:38:12.423Z,101214.34
2018-09-14T20:40:42.235Z,101214.36
2018-09-14T20:43:12.265Z,101216.73
2018-09-14T20:45:42.045Z,101213.80
2018-09-14T20:48:12.246Z,101220.45
2018-09-14T20:50:42.316Z,101224.00
2018-09-14T20:53:12.400Z,101223.37
2018-09-14T20:55:43.182Z,101218.53
2018-09-14T20:58:13.451Z,101221.41
2018-09-14T21:00:43.648Z,101234.09
2018-09-14T21:03:13.713Z,101234.19
2018-09-14T21:05:43.671Z,101232.61
2018-09-14T21:08:13.756Z,101232.08
2018-09-14T21:10:43.820Z,101229.56
2018-09-14T21:13:13.739Z,101243.05
2018-09-14T21:15:43.667Z,101252.42
2018-09-14T21:18:13.733Z,101239.91
2018-09-14T21:20:43.720Z,101254.67
2018-09-14T21:23:13.887Z,101256.30
2018-09-14T21:25:44.125Z,101259.92
2018-09-14T21:28:14.277Z,101261.66
2018-09-14T21:30:44.065Z,101255.97
2018-09-14T21:33:13.953Z,101252.64
2018-09-14T21:35:43.722Z,101260.39
2018-09-14T21:38:13.577Z,101265.63
2018-09-14T21:40:43.479Z,101259.41
2018-09-14T21:43:13.284Z,101266.55
2018-09-14T21:45:43.309Z,101272.42
2018-09-14T21:48:13.240Z,101268.66
2018-09-14T21:50:43.205Z,101275.20
2018-09-14T21:53:13.077Z,101275.42
2018-09-14T21:55:43.067Z,101267.57
2018-09-14T21:58:13.015Z,101272.11
2018-09-14T22:00:47.848Z,101276.19
2018-09-14T22:03:17.704Z,101272.50
2018-09-14T22:05:47.548Z,101271.10
2018-09-14T22:08:30.031Z,101277.73
2018-09-14T22:10:59.815Z,101277.50
2018-09-14T22:13:29.608Z,101271.95
2018-09-14T22:18:56.588Z,101281.05
2018-09-14T22:21:26.595Z,101287.70
2018-09-14T22:23:56.377Z,101289.09
2018-09-14T22:26:26.143Z,101279.22
2018-09-14T22:28:56.152Z,101283.84
2018-09-14T22:31:26.139Z,101288.31
2018-09-14T22:33:56.142Z,101279.91
2018-09-14T22:36:26.111Z,101281.98
2018-09-14T22:38:56.084Z,101285.67
2018-09-14T22:41:25.904Z,101277.95
2018-09-14T22:43:55.972Z,101275.36
2018-09-14T22:46:25.967Z,101288.13
2018-09-14T22:48:55.971Z,101283.64
2018-09-14T22:51:26.030Z,101286.98
2018-09-14T22:53:56.218Z,101289.14
2018-09-14T22:56:26.154Z,101291.04
2018-09-14T22:58:56.071Z,101294.80
2018-09-14T23:01:26.131Z,101290.13
2018-09-14T23:03:55.926Z,101286.98
2018-09-14T23:06:25.672Z,101287.84
2018-09-14T23:08:55.535Z,101290.39
2018-09-14T23:11:25.564Z,101288.48
2018-09-14T23:13:55.398Z,101279.06
2018-09-14T23:16:25.426Z,101284.49
2018-09-14T23:18:55.267Z,101292.05
2018-09-14T23:21:25.229Z,101290.45
2018-09-14T23:23:55.037Z,101304.34
2018-09-14T23:26:25.603Z,101306.72
2018-09-14T23:28:55.467Z,101305.44
2018-09-14T23:31:25.494Z,101300.88
2018-09-14T23:33:55.535Z,101306.78
2018-09-14T23:36:25.411Z,101306.94
2018-09-14T23:38:55.175Z,101315.80
2018-09-14T23:41:25.156Z,101320.92
2018-09-14T23:43:55.076Z,101322.06
2018-09-14T23:46:25.139Z,101322.34
2018-09-14T23:48:54.976Z,101313.30
2018-09-14T23:51:24.885Z,101311.92
2018-09-14T23:53:54.867Z,101317.72
2018-09-14T23:56:24.737Z,101314.19
2018-09-14T23:58:54.733Z,101314.98
